createdAt,value
2023-03-06T00:00:49.646Z,3.37
2023-03-06T00:03:19.295Z,3.36
2023-03-06T00:05:46.412Z,3.31
2023-03-06T00:08:13.376Z,3.27
2023-03-06T00:10:40.554Z,3.27
2023-03-06T00:13:12.561Z,3.36
2023-03-06T00:15:39.422Z,3.30
2023-03-06T00:18:07.248Z,3.34
2023-03-06T00:20:35.098Z,3.37
2023-03-06T00:23:02.211Z,3.34
2023-03-06T00:25:29.150Z,3.34
2023-03-06T00:27:56.140Z,3.40
2023-03-06T00:30:24.907Z,3.36
2023-03-06T00:32:53.253Z,3.38
2023-03-06T00:35:20.240Z,3.38
2023-03-06T00:37:47.142Z,3.34
2023-03-06T00:40:17.951Z,3.40
2023-03-06T00:42:45.446Z,3.28
2023-03-06T00:45:12.697Z,3.30
2023-03-06T00:47:40.293Z,3.36
2023-03-06T00:50:08.465Z,3.24
2023-03-06T00:52:35.490Z,3.31
2023-03-06T00:55:02.728Z,3.33
2023-03-06T01:11:58.564Z,3.47
2023-03-06T01:14:25.190Z,3.41
2023-03-06T01:16:52.002Z,3.41
2023-03-06T01:19:18.642Z,3.36
2023-03-06T01:21:45.870Z,3.24
2023-03-06T01:24:12.435Z,3.40
2023-03-06T01:26:39.029Z,3.30
2023-03-06T01:29:06.486Z,3.36
2023-03-06T01:31:33.673Z,3.41
2023-03-06T01:34:00.677Z,3.36
2023-03-06T01:36:27.299Z,3.34
2023-03-06T01:38:53.929Z,3.38
2023-03-06T01:41:21.567Z,3.16
2023-03-06T01:43:48.954Z,3.16
2023-03-06T01:46:30.446Z,3.09
2023-03-06T01:49:08.530Z,3.12
2023-03-06T01:51:43.285Z,3.16
2023-03-06T01:54:17.836Z,3.05
2023-03-06T01:56:48.406Z,3.00
2023-03-06T01:59:15.163Z,2.96
2023-03-06T02:01:43.026Z,2.99
2023-03-06T02:04:10.385Z,3.06
2023-03-06T02:06:39.748Z,3.07
2023-03-06T02:09:06.968Z,3.02
2023-03-06T02:11:33.985Z,3.00
2023-03-06T02:14:00.661Z,2.95
2023-03-06T02:16:31.109Z,3.00
2023-03-06T02:19:00.392Z,3.03
2023-03-06T02:21:37.204Z,2.93
2023-03-06T02:24:18.843Z,2.91
2023-03-06T02:26:47.653Z,2.93
2023-03-06T02:29:21.732Z,2.96
2023-03-06T02:31:48.304Z,2.98
2023-03-06T02:34:14.857Z,2.91
2023-03-06T02:36:45.875Z,2.99
2023-03-06T02:39:13.531Z,2.96
2023-03-06T02:41:41.041Z,2.95
2023-03-06T02:44:07.956Z,2.91
2023-03-06T02:46:34.747Z,3.05
2023-03-06T02:49:01.403Z,3.00
2023-03-06T02:51:28.470Z,2.96
2023-03-06T02:53:55.125Z,3.02
2023-03-06T02:56:21.970Z,2.93
2023-03-06T02:58:48.607Z,2.91
2023-03-06T03:01:15.337Z,2.85
2023-03-06T03:03:42.071Z,2.98
2023-03-06T03:06:08.656Z,2.95
2023-03-06T03:08:35.334Z,2.98
2023-03-06T03:11:03.068Z,3.03
2023-03-06T03:13:29.722Z,2.93
2023-03-06T03:16:07.936Z,3.06
2023-03-06T03:18:35.739Z,2.99
2023-03-06T03:21:06.725Z,3.10
2023-03-06T03:23:33.423Z,2.96
2023-03-06T03:26:18.704Z,3.00
2023-03-06T03:28:45.732Z,2.98
2023-03-06T03:31:13.588Z,2.99
2023-03-06T03:33:40.880Z,3.02
2023-03-06T03:36:08.078Z,3.06
2023-03-06T03:38:35.077Z,3.12
2023-03-06T03:41:02.137Z,3.07
2023-03-06T03:43:28.826Z,3.07
2023-03-06T03:45:55.481Z,3.07
2023-03-06T03:48:22.077Z,3.10
2023-03-06T03:50:48.977Z,3.06
2023-03-06T03:53:15.582Z,3.15
2023-03-06T03:55:42.273Z,3.17
2023-03-06T03:58:08.814Z,3.16
2023-03-06T04:00:35.497Z,3.13
2023-03-06T04:03:02.053Z,3.20
2023-03-06T04:05:28.719Z,3.16
2023-03-06T04:07:55.308Z,3.13
2023-03-06T04:10:21.969Z,3.17
2023-03-06T04:12:48.715Z,3.20
2023-03-06T04:15:15.391Z,3.17
2023-03-06T04:17:42.010Z,3.15
2023-03-06T04:20:09.552Z,3.15
2023-03-06T04:22:36.206Z,3.19
2023-03-06T04:25:02.896Z,3.19
2023-03-06T04:27:29.488Z,3.12
2023-03-06T04:29:56.525Z,3.26
2023-03-06T04:32:24.036Z,3.23
2023-03-06T04:34:51.189Z,3.23
2023-03-06T04:37:22.966Z,3.23
2023-03-06T04:39:49.850Z,3.24
2023-03-06T04:42:16.727Z,3.28
2023-03-06T04:44:43.471Z,3.27
2023-03-06T04:47:10.678Z,3.31
2023-03-06T04:49:37.570Z,3.28
2023-03-06T04:52:04.657Z,3.36
2023-03-06T04:54:31.319Z,3.31
2023-03-06T04:56:58.036Z,3.40
2023-03-06T04:59:25.185Z,3.41
2023-03-06T05:01:52.246Z,3.28
2023-03-06T05:04:18.893Z,3.37
2023-03-06T05:06:45.577Z,3.24
2023-03-06T05:09:12.246Z,3.19
2023-03-06T05:11:38.828Z,3.17
2023-03-06T05:14:05.446Z,3.22
2023-03-06T05:16:32.086Z,3.24
2023-03-06T05:18:58.745Z,3.23
2023-03-06T05:21:25.420Z,3.27
2023-03-06T05:23:51.991Z,3.36
2023-03-06T05:26:18.584Z,3.40
2023-03-06T05:28:45.347Z,3.24
2023-03-06T05:31:12.195Z,3.30
2023-03-06T05:33:38.780Z,3.36
2023-03-06T05:36:08.277Z,3.31
2023-03-06T05:38:35.334Z,3.33
2023-03-06T05:41:01.960Z,3.34
2023-03-06T05:43:28.525Z,3.34
2023-03-06T05:46:03.238Z,3.36
2023-03-06T05:48:30.064Z,3.33
2023-03-06T05:50:57.968Z,3.30
2023-03-06T05:53:24.538Z,3.30
2023-03-06T05:56:03.250Z,3.31
2023-03-06T05:58:31.224Z,3.36
2023-03-06T06:00:57.935Z,3.38
2023-03-06T06:03:25.236Z,3.34
2023-03-06T06:05:52.989Z,3.38
2023-03-06T06:08:21.096Z,3.27
2023-03-06T06:10:47.702Z,3.33
2023-03-06T06:13:14.371Z,3.33
2023-03-06T06:15:40.963Z,3.43
2023-03-06T06:18:07.790Z,3.31
2023-03-06T06:20:35.607Z,3.38
2023-03-06T06:23:02.434Z,3.34
2023-03-06T06:25:33.055Z,3.36
2023-03-06T06:28:03.819Z,3.41
2023-03-06T06:30:31.536Z,3.36
2023-03-06T06:32:59.849Z,3.38
2023-03-06T06:35:27.143Z,3.33
2023-03-06T06:37:53.833Z,3.37
2023-03-06T06:40:21.262Z,3.31
2023-03-06T06:42:47.961Z,3.31
2023-03-06T06:45:15.012Z,3.37
2023-03-06T06:47:41.866Z,3.37
2023-03-06T06:50:13.510Z,3.37
2023-03-06T06:52:40.545Z,3.31
2023-03-06T06:55:07.563Z,3.38
2023-03-06T06:57:34.322Z,3.41
2023-03-06T07:00:11.361Z,3.36
2023-03-06T07:02:38.064Z,3.44
2023-03-06T07:05:05.698Z,3.37
2023-03-06T07:07:38.157Z,3.44
2023-03-06T07:10:08.584Z,3.34
2023-03-06T07:12:35.617Z,3.43
2023-03-06T07:15:02.965Z,3.43
2023-03-06T07:17:29.704Z,3.43
2023-03-06T07:19:56.382Z,3.40
2023-03-06T07:22:23.472Z,3.41
2023-03-06T07:24:50.185Z,3.41
2023-03-06T07:27:16.947Z,3.40
2023-03-06T07:36:55.652Z,3.51
2023-03-06T07:39:52.162Z,3.43
2023-03-06T07:42:21.590Z,3.44
2023-03-06T07:44:55.616Z,3.53
2023-03-06T07:47:29.853Z,3.51
2023-03-06T07:55:47.854Z,3.67
2023-03-06T07:58:41.883Z,3.67
2023-03-06T08:06:56.416Z,3.87
2023-03-06T08:09:51.332Z,3.96
2023-03-06T08:21:18.871Z,3.94
2023-03-06T08:27:27.210Z,3.84
2023-03-06T08:30:42.078Z,3.94
2023-03-06T08:42:27.953Z,3.88
2023-03-06T08:44:58.774Z,3.91
2023-03-06T08:47:25.756Z,3.91
2023-03-06T08:49:52.411Z,3.94
2023-03-06T08:52:20.299Z,4.05
2023-03-06T08:54:47.383Z,4.03
2023-03-06T08:57:14.042Z,4.16
2023-03-06T08:59:42.158Z,4.08
2023-03-06T09:02:12.892Z,4.01
2023-03-06T09:04:39.405Z,4.02
2023-03-06T09:07:07.824Z,4.17
2023-03-06T09:09:34.500Z,4.10
2023-03-06T09:12:08.467Z,4.25
2023-03-06T09:14:35.170Z,4.43
2023-03-06T09:17:01.739Z,4.29
2023-03-06T09:22:08.873Z,4.42
2023-03-06T09:24:37.769Z,4.52
2023-03-06T09:27:04.391Z,4.56
2023-03-06T09:29:30.922Z,4.54
2023-03-06T09:31:57.562Z,4.60
2023-03-06T09:34:24.125Z,4.74
2023-03-06T09:36:57.329Z,4.47
2023-03-06T09:39:26.410Z,4.35
2023-03-06T09:41:55.001Z,4.29
2023-03-06T09:44:26.056Z,4.45
2023-03-06T09:47:32.031Z,4.36
2023-03-06T09:50:22.096Z,4.50
2023-03-06T09:53:21.865Z,4.45
2023-03-06T09:55:56.864Z,4.35
2023-03-06T09:58:26.822Z,4.36
2023-03-06T10:01:25.414Z,4.36
2023-03-06T10:04:20.732Z,4.52
2023-03-06T10:06:50.329Z,4.53
2023-03-06T10:09:22.393Z,4.58
2023-03-06T10:12:02.458Z,4.67
2023-03-06T10:14:49.475Z,4.61
2023-03-06T10:17:21.599Z,4.73
2023-03-06T10:19:49.975Z,4.83
2023-03-06T10:22:33.384Z,4.68
2023-03-06T10:25:14.641Z,4.63
2023-03-06T10:27:48.580Z,4.60
2023-03-06T10:30:23.074Z,4.67
2023-03-06T10:32:58.364Z,4.61
2023-03-06T10:35:38.114Z,4.64
2023-03-06T10:38:31.220Z,4.56
2023-03-06T10:41:04.913Z,4.77
2023-03-06T10:43:36.491Z,4.77
2023-03-06T10:46:05.334Z,4.58
2023-03-06T10:48:36.058Z,4.52
2023-03-06T10:51:23.037Z,4.47
2023-03-06T10:54:19.727Z,4.63
2023-03-06T10:56:48.609Z,4.42
2023-03-06T10:59:17.269Z,4.23
2023-03-06T11:01:48.868Z,3.89
2023-03-06T11:04:23.013Z,3.88
2023-03-06T11:07:04.538Z,3.87
2023-03-06T11:09:33.240Z,3.89
2023-03-06T11:12:21.907Z,4.02
2023-03-06T11:15:07.051Z,3.95
2023-03-06T11:17:36.209Z,4.09
2023-03-06T11:20:14.814Z,4.15
2023-03-06T11:22:41.827Z,4.20
2023-03-06T11:25:14.113Z,4.17
2023-03-06T11:27:49.284Z,4.23
2023-03-06T11:30:23.434Z,4.35
2023-03-06T11:33:04.526Z,4.33
2023-03-06T11:35:41.205Z,4.35
2023-03-06T11:38:51.648Z,4.49
2023-03-06T11:42:02.903Z,4.46
2023-03-06T11:45:03.079Z,4.46
2023-03-06T11:47:38.549Z,4.57
2023-03-06T11:50:28.907Z,4.57
2023-03-06T11:53:20.025Z,4.58
2023-03-06T11:56:11.068Z,4.60
2023-03-06T11:59:23.076Z,4.61
2023-03-06T12:01:58.002Z,4.66
2023-03-06T12:04:52.602Z,4.71
2023-03-06T12:07:29.741Z,4.70
2023-03-06T12:10:23.667Z,4.33
2023-03-06T12:12:50.648Z,4.29
2023-03-06T12:15:42.104Z,4.29
2023-03-06T12:18:47.555Z,4.39
2023-03-06T12:21:44.394Z,4.45
2023-03-06T12:24:44.662Z,4.58
2023-03-06T12:27:32.192Z,4.64
2023-03-06T12:30:21.761Z,4.61
2023-03-06T12:32:51.675Z,4.68
2023-03-06T12:35:48.993Z,4.67
2023-03-06T12:39:02.375Z,4.61
2023-03-06T12:41:56.382Z,4.68
2023-03-06T12:44:54.138Z,4.87
2023-03-06T12:47:24.200Z,4.78
2023-03-06T12:49:55.926Z,4.85
2023-03-06T12:52:30.525Z,4.85
2023-03-06T12:55:08.983Z,4.84
2023-03-06T12:57:39.136Z,4.84
2023-03-06T13:00:06.520Z,4.89
2023-03-06T13:02:58.270Z,4.94
2023-03-06T13:05:50.696Z,4.88
2023-03-06T13:08:37.159Z,4.83
2023-03-06T13:11:18.868Z,4.74
2023-03-06T13:13:50.721Z,4.71
2023-03-06T13:16:35.831Z,4.71
2023-03-06T13:21:57.920Z,4.83
2023-03-06T13:30:45.037Z,4.67
2023-03-06T13:33:25.341Z,4.66
2023-03-06T13:35:54.864Z,4.67
2023-03-06T13:38:29.523Z,4.58
2023-03-06T13:41:35.078Z,4.67
2023-03-06T13:44:23.385Z,4.60
2023-03-06T13:46:57.193Z,4.10
2023-03-06T13:49:24.800Z,3.81
2023-03-06T13:51:57.233Z,3.91
2023-03-06T13:54:50.351Z,3.78
2023-03-06T13:57:43.083Z,3.95
2023-03-06T14:00:32.003Z,4.13
2023-03-06T14:03:41.463Z,4.26
2023-03-06T14:06:37.043Z,4.47
2023-03-06T14:09:13.816Z,4.47
2023-03-06T14:11:57.960Z,4.57
2023-03-06T14:14:34.655Z,4.56
2023-03-06T14:19:44.964Z,4.73
2023-03-06T14:25:28.075Z,4.71
2023-03-06T14:27:58.223Z,4.64
2023-03-06T14:33:12.097Z,4.57
2023-03-06T14:38:20.330Z,4.29
2023-03-06T14:43:27.958Z,4.20
2023-03-06T14:48:44.703Z,4.10
2023-03-06T14:51:17.195Z,4.02
2023-03-06T14:53:45.743Z,4.08
2023-03-06T14:59:01.852Z,4.19
2023-03-06T15:01:40.141Z,4.36
2023-03-06T15:04:38.148Z,4.70
2023-03-06T15:07:12.948Z,4.92
2023-03-06T15:09:44.287Z,4.88
2023-03-06T15:12:23.121Z,5.07
2023-03-06T15:14:57.325Z,5.12
2023-03-06T15:17:32.819Z,5.05
2023-03-06T15:20:03.382Z,5.05
2023-03-06T15:22:41.104Z,5.15
2023-03-06T15:25:22.942Z,5.04
2023-03-06T15:27:55.675Z,5.19
2023-03-06T15:30:35.984Z,5.12
2023-03-06T15:33:28.590Z,5.19
2023-03-06T15:36:00.890Z,5.62
2023-03-06T15:38:42.734Z,5.52
2023-03-06T15:41:35.990Z,5.40
2023-03-06T15:44:12.546Z,5.47
2023-03-06T15:46:39.203Z,5.45
2023-03-06T15:49:14.629Z,5.47
2023-03-06T15:51:45.709Z,5.29
2023-03-06T15:54:15.680Z,5.40
2023-03-06T15:56:44.552Z,5.22
2023-03-06T15:59:22.216Z,5.16
2023-03-06T16:01:55.096Z,5.09
2023-03-06T16:04:23.354Z,5.03
2023-03-06T16:06:51.990Z,5.04
2023-03-06T16:12:03.628Z,4.92
2023-03-06T16:14:36.337Z,4.94
2023-03-06T16:19:45.222Z,4.97
2023-03-06T16:24:58.645Z,4.99
2023-03-06T16:27:35.909Z,4.95
2023-03-06T16:30:11.025Z,4.91
2023-03-06T16:38:20.450Z,4.71
2023-03-06T16:40:47.900Z,4.76
2023-03-06T16:43:23.147Z,4.80
2023-03-06T16:46:30.845Z,4.88
2023-03-06T16:51:49.616Z,4.94
2023-03-06T16:54:20.895Z,4.77
2023-03-06T16:59:43.281Z,4.87
2023-03-06T17:02:29.183Z,4.83
2023-03-06T19:09:04.815Z,5.04
2023-03-06T19:11:35.349Z,4.98
2023-03-06T19:14:11.144Z,5.05
2023-03-06T19:16:37.819Z,5.08
2023-03-06T19:19:07.839Z,5.01
2023-03-06T19:21:45.353Z,5.15
2023-03-06T19:24:30.630Z,5.05
2023-03-06T19:27:00.626Z,5.08
2023-03-06T19:29:33.713Z,5.05
2023-03-06T19:32:00.680Z,5.03
2023-03-06T19:34:28.737Z,5.04
2023-03-06T19:36:55.857Z,5.09
2023-03-06T19:39:22.764Z,5.03
2023-03-06T19:42:07.077Z,5.05
2023-03-06T19:44:57.228Z,5.03
2023-03-06T19:47:27.333Z,5.03
2023-03-06T19:50:04.933Z,5.01
2023-03-06T19:52:34.708Z,4.97
2023-03-06T19:55:02.465Z,5.05
2023-03-06T19:57:47.488Z,5.12
2023-03-06T20:00:29.254Z,5.07
2023-03-06T20:03:00.398Z,5.12
2023-03-06T20:05:35.403Z,5.12
2023-03-06T20:08:05.283Z,5.11
2023-03-06T20:10:36.131Z,5.12
2023-03-06T20:13:05.830Z,5.09
2023-03-06T20:15:36.895Z,5.05
2023-03-06T20:18:04.409Z,5.09
2023-03-06T20:20:31.094Z,5.12
2023-03-06T20:23:02.600Z,5.09
2023-03-06T20:25:29.177Z,5.12
2023-03-06T20:27:55.858Z,5.05
2023-03-06T20:30:23.088Z,5.07
2023-03-06T20:32:49.724Z,5.08
2023-03-06T20:35:16.519Z,5.08
2023-03-06T20:37:43.334Z,5.04
2023-03-06T20:40:10.765Z,5.05
2023-03-06T20:42:37.370Z,5.04
2023-03-06T20:45:04.337Z,4.98
2023-03-06T20:47:31.018Z,4.80
2023-03-06T20:49:57.739Z,4.67
2023-03-06T20:52:24.466Z,4.53
2023-03-06T20:54:51.285Z,4.39
2023-03-06T20:57:18.099Z,4.43
2023-03-06T20:59:45.491Z,4.29
2023-03-06T21:02:12.181Z,4.30
2023-03-06T21:04:41.107Z,4.26
2023-03-06T21:07:07.840Z,4.19
2023-03-06T21:09:37.714Z,4.08
2023-03-06T21:12:05.099Z,3.94
2023-03-06T21:14:31.839Z,3.89
2023-03-06T21:16:58.547Z,3.88
2023-03-06T21:19:25.537Z,3.88
2023-03-06T21:21:52.360Z,3.85
2023-03-06T21:24:20.966Z,3.89
2023-03-06T21:26:48.282Z,3.87
2023-03-06T21:29:14.938Z,3.91
2023-03-06T21:31:41.633Z,3.88
2023-03-06T21:34:08.332Z,3.91
2023-03-06T21:36:34.967Z,3.87
2023-03-06T21:39:01.859Z,3.84
2023-03-06T21:41:30.477Z,3.78
2023-03-06T21:43:59.615Z,3.70
2023-03-06T21:46:27.300Z,3.67
2023-03-06T21:48:54.838Z,3.60
2023-03-06T21:51:23.740Z,3.54
2023-03-06T21:53:52.147Z,3.51
2023-03-06T21:56:21.124Z,3.47
2023-03-06T21:58:47.994Z,3.54
2023-03-06T22:01:20.009Z,3.57
2023-03-06T22:03:46.714Z,3.58
2023-03-06T22:06:16.482Z,3.61
2023-03-06T22:08:44.137Z,3.74
2023-03-06T22:11:15.932Z,3.82
2023-03-06T22:13:42.973Z,3.96
2023-03-06T22:16:09.966Z,4.08
2023-03-06T22:18:37.530Z,4.22
2023-03-06T22:21:09.265Z,4.30
2023-03-06T22:23:36.405Z,4.29
2023-03-06T22:26:08.185Z,4.13
2023-03-06T22:28:35.276Z,4.08
2023-03-06T22:31:28.983Z,4.02
2023-03-06T22:33:58.170Z,4.05
2023-03-06T22:36:26.782Z,4.08
2023-03-06T22:38:58.146Z,4.23
2023-03-06T22:41:26.979Z,4.25
2023-03-06T22:43:59.247Z,4.42
2023-03-06T22:46:27.109Z,4.49
2023-03-06T22:48:56.269Z,4.64
2023-03-06T22:51:23.325Z,4.68
2023-03-06T22:53:51.046Z,4.64
2023-03-06T22:56:19.967Z,4.73
2023-03-06T22:58:47.884Z,4.63
2023-03-06T23:01:15.508Z,4.68
2023-03-06T23:03:45.504Z,4.63
2023-03-06T23:06:18.314Z,4.70
2023-03-06T23:08:49.953Z,4.68
2023-03-06T23:11:17.909Z,4.68
2023-03-06T23:13:44.460Z,4.76
2023-03-06T23:16:14.061Z,4.76
2023-03-06T23:18:44.227Z,4.71
2023-03-06T23:21:14.077Z,4.70
2023-03-06T23:23:41.431Z,4.68
2023-03-06T23:26:08.965Z,4.66
2023-03-06T23:28:36.170Z,4.68
2023-03-06T23:31:11.215Z,4.70
2023-03-06T23:33:38.955Z,4.74
2023-03-06T23:36:11.963Z,4.73
2023-03-06T23:38:39.370Z,4.71
2023-03-06T23:41:16.474Z,4.74
2023-03-06T23:43:47.798Z,4.70
2023-03-06T23:46:49.496Z,4.70
2023-03-06T23:49:16.857Z,4.73
2023-03-06T23:51:46.348Z,4.76
2023-03-06T23:54:15.847Z,4.71
2023-03-06T23:56:45.428Z,4.74
2023-03-06T23:59:15.174Z,4.74
